sensor_id;sensor_type;location;lat;lon;timestamp;P1;durP1;ratioP1;P2;durP2;ratioP2
2624;SDS011;1322;53.256;10.386;2023-03-13T00:01:17;19.37;;;5.70;;
2624;SDS011;1322;53.256;10.386;2023-03-13T00:03:46;14.83;;;5.37;;
2624;SDS011;1322;53.256;10.386;2023-03-13T00:06:12;33.87;;;8.00;;
2624;SDS011;1322;53.256;10.386;2023-03-13T00:08:38;20.90;;;6.20;;
2624;SDS011;1322;53.256;10.386;2023-03-13T00:11:05;22.83;;;7.27;;
2624;SDS011;1322;53.256;10.386;2023-03-13T00:13:35;22.23;;;6.80;;
2624;SDS011;1322;53.256;10.386;2023-03-13T00:16:05;25.07;;;6.40;;
2624;SDS011;1322;53.256;10.386;2023-03-13T00:18:33;20.40;;;7.93;;
2624;SDS011;1322;53.256;10.386;2023-03-13T00:20:59;22.27;;;6.97;;
2624;SDS011;1322;53.256;10.386;2023-03-13T00:23:35;17.97;;;6.40;;
2624;SDS011;1322;53.256;10.386;2023-03-13T00:26:03;21.80;;;7.40;;
2624;SDS011;1322;53.256;10.386;2023-03-13T00:28:34;26.37;;;8.63;;
2624;SDS011;1322;53.256;10.386;2023-03-13T00:31:12;25.23;;;7.57;;
2624;SDS011;1322;53.256;10.386;2023-03-13T00:33:48;25.03;;;6.90;;
2624;SDS011;1322;53.256;10.386;2023-03-13T00:36:20;23.63;;;6.93;;
2624;SDS011;1322;53.256;10.386;2023-03-13T00:38:47;20.43;;;7.77;;
2624;SDS011;1322;53.256;10.386;2023-03-13T00:41:16;25.20;;;8.47;;
2624;SDS011;1322;53.256;10.386;2023-03-13T00:43:43;26.20;;;7.00;;
2624;SDS011;1322;53.256;10.386;2023-03-13T00:46:10;35.37;;;7.30;;
2624;SDS011;1322;53.256;10.386;2023-03-13T00:48:37;25.93;;;7.40;;
2624;SDS011;1322;53.256;10.386;2023-03-13T00:51:03;22.70;;;6.80;;
2624;SDS011;1322;53.256;10.386;2023-03-13T00:53:29;30.53;;;9.40;;
2624;SDS011;1322;53.256;10.386;2023-03-13T00:55:56;24.60;;;6.80;;
2624;SDS011;1322;53.256;10.386;2023-03-13T00:58:24;35.47;;;8.20;;
2624;SDS011;1322;53.256;10.386;2023-03-13T01:00:51;18.67;;;7.30;;
2624;SDS011;1322;53.256;10.386;2023-03-13T01:03:18;26.17;;;8.33;;
2624;SDS011;1322;53.256;10.386;2023-03-13T01:05:45;32.47;;;7.80;;
2624;SDS011;1322;53.256;10.386;2023-03-13T01:08:19;23.13;;;7.47;;
2624;SDS011;1322;53.256;10.386;2023-03-13T01:10:44;25.80;;;6.37;;
2624;SDS011;1322;53.256;10.386;2023-03-13T01:13:10;35.83;;;8.47;;
2624;SDS011;1322;53.256;10.386;2023-03-13T01:15:35;28.87;;;7.67;;
2624;SDS011;1322;53.256;10.386;2023-03-13T01:18:01;28.60;;;8.60;;
2624;SDS011;1322;53.256;10.386;2023-03-13T01:20:27;23.43;;;8.47;;
2624;SDS011;1322;53.256;10.386;2023-03-13T01:22:54;26.20;;;8.40;;
2624;SDS011;1322;53.256;10.386;2023-03-13T01:25:19;23.77;;;7.20;;
2624;SDS011;1322;53.256;10.386;2023-03-13T01:27:45;26.40;;;7.83;;
2624;SDS011;1322;53.256;10.386;2023-03-13T01:30:10;31.17;;;7.73;;
2624;SDS011;1322;53.256;10.386;2023-03-13T01:32:36;21.23;;;6.67;;
2624;SDS011;1322;53.256;10.386;2023-03-13T01:35:02;23.70;;;7.07;;
2624;SDS011;1322;53.256;10.386;2023-03-13T01:37:28;24.03;;;7.10;;
2624;SDS011;1322;53.256;10.386;2023-03-13T01:39:53;22.90;;;7.47;;
2624;SDS011;1322;53.256;10.386;2023-03-13T01:42:19;28.23;;;8.53;;
2624;SDS011;1322;53.256;10.386;2023-03-13T01:44:54;14.20;;;7.17;;
2624;SDS011;1322;53.256;10.386;2023-03-13T01:47:21;16.63;;;6.80;;
2624;SDS011;1322;53.256;10.386;2023-03-13T01:49:47;32.47;;;7.87;;
2624;SDS011;1322;53.256;10.386;2023-03-13T01:52:22;28.77;;;6.80;;
2624;SDS011;1322;53.256;10.386;2023-03-13T01:57:33;18.80;;;7.00;;
2624;SDS011;1322;53.256;10.386;2023-03-13T02:00:13;32.37;;;8.17;;
2624;SDS011;1322;53.256;10.386;2023-03-13T02:02:47;22.30;;;7.60;;
2624;SDS011;1322;53.256;10.386;2023-03-13T02:05:15;27.50;;;7.47;;
2624;SDS011;1322;53.256;10.386;2023-03-13T02:07:52;25.60;;;8.30;;
2624;SDS011;1322;53.256;10.386;2023-03-13T02:10:23;18.60;;;6.07;;
2624;SDS011;1322;53.256;10.386;2023-03-13T02:12:50;32.73;;;8.93;;
2624;SDS011;1322;53.256;10.386;2023-03-13T02:15:19;34.23;;;7.13;;
2624;SDS011;1322;53.256;10.386;2023-03-13T02:17:46;20.40;;;6.80;;
2624;SDS011;1322;53.256;10.386;2023-03-13T02:20:14;34.40;;;7.23;;
2624;SDS011;1322;53.256;10.386;2023-03-13T02:25:42;36.20;;;8.27;;
2624;SDS011;1322;53.256;10.386;2023-03-13T02:30:57;25.97;;;6.90;;
2624;SDS011;1322;53.256;10.386;2023-03-13T02:33:30;20.33;;;6.13;;
2624;SDS011;1322;53.256;10.386;2023-03-13T02:36:00;21.67;;;5.57;;
2624;SDS011;1322;53.256;10.386;2023-03-13T02:38:28;26.47;;;5.90;;
2624;SDS011;1322;53.256;10.386;2023-03-13T02:40:57;21.00;;;5.80;;
2624;SDS011;1322;53.256;10.386;2023-03-13T02:43:28;26.37;;;5.77;;
2624;SDS011;1322;53.256;10.386;2023-03-13T02:46:03;33.33;;;6.30;;
2624;SDS011;1322;53.256;10.386;2023-03-13T02:48:30;22.47;;;7.67;;
2624;SDS011;1322;53.256;10.386;2023-03-13T02:50:58;19.43;;;6.57;;
2624;SDS011;1322;53.256;10.386;2023-03-13T02:53:25;33.87;;;7.17;;
2624;SDS011;1322;53.256;10.386;2023-03-13T02:55:51;20.53;;;5.90;;
2624;SDS011;1322;53.256;10.386;2023-03-13T02:58:17;17.13;;;5.90;;
2624;SDS011;1322;53.256;10.386;2023-03-13T03:00:43;19.13;;;6.03;;
2624;SDS011;1322;53.256;10.386;2023-03-13T03:03:09;18.40;;;6.07;;
2624;SDS011;1322;53.256;10.386;2023-03-13T03:05:35;20.07;;;5.40;;
2624;SDS011;1322;53.256;10.386;2023-03-13T03:08:01;18.73;;;5.23;;
2624;SDS011;1322;53.256;10.386;2023-03-13T03:10:26;20.17;;;5.10;;
2624;SDS011;1322;53.256;10.386;2023-03-13T03:12:52;22.03;;;5.67;;
2624;SDS011;1322;53.256;10.386;2023-03-13T03:15:17;13.70;;;5.30;;
2624;SDS011;1322;53.256;10.386;2023-03-13T03:17:43;21.40;;;4.60;;
2624;SDS011;1322;53.256;10.386;2023-03-13T03:20:09;21.20;;;6.03;;
2624;SDS011;1322;53.256;10.386;2023-03-13T03:22:38;27.67;;;6.40;;
2624;SDS011;1322;53.256;10.386;2023-03-13T03:25:05;29.70;;;6.23;;
2624;SDS011;1322;53.256;10.386;2023-03-13T03:27:31;23.53;;;5.10;;
2624;SDS011;1322;53.256;10.386;2023-03-13T03:29:57;26.47;;;4.97;;
2624;SDS011;1322;53.256;10.386;2023-03-13T03:32:23;17.73;;;5.20;;
2624;SDS011;1322;53.256;10.386;2023-03-13T03:34:48;16.20;;;5.43;;
2624;SDS011;1322;53.256;10.386;2023-03-13T03:37:14;18.67;;;4.53;;
2624;SDS011;1322;53.256;10.386;2023-03-13T03:39:40;20.83;;;6.00;;
2624;SDS011;1322;53.256;10.386;2023-03-13T03:42:05;15.07;;;4.93;;
2624;SDS011;1322;53.256;10.386;2023-03-13T03:44:31;24.80;;;5.03;;
2624;SDS011;1322;53.256;10.386;2023-03-13T03:46:56;22.83;;;6.73;;
2624;SDS011;1322;53.256;10.386;2023-03-13T03:49:22;12.80;;;4.07;;
2624;SDS011;1322;53.256;10.386;2023-03-13T03:51:48;21.90;;;4.63;;
2624;SDS011;1322;53.256;10.386;2023-03-13T03:54:13;24.67;;;5.00;;
2624;SDS011;1322;53.256;10.386;2023-03-13T03:56:39;24.27;;;5.83;;
2624;SDS011;1322;53.256;10.386;2023-03-13T03:59:04;22.20;;;5.27;;
2624;SDS011;1322;53.256;10.386;2023-03-13T04:01:30;25.30;;;5.87;;
2624;SDS011;1322;53.256;10.386;2023-03-13T04:03:56;22.40;;;5.00;;
2624;SDS011;1322;53.256;10.386;2023-03-13T04:06:21;14.30;;;5.37;;
2624;SDS011;1322;53.256;10.386;2023-03-13T04:08:47;18.37;;;5.57;;
2624;SDS011;1322;53.256;10.386;2023-03-13T04:11:12;14.40;;;5.03;;
2624;SDS011;1322;53.256;10.386;2023-03-13T04:13:38;33.83;;;5.40;;
2624;SDS011;1322;53.256;10.386;2023-03-13T04:16:07;17.37;;;5.37;;
2624;SDS011;1322;53.256;10.386;2023-03-13T04:18:33;24.03;;;4.53;;
2624;SDS011;1322;53.256;10.386;2023-03-13T04:21:00;26.80;;;6.30;;
2624;SDS011;1322;53.256;10.386;2023-03-13T04:23:26;21.40;;;5.07;;
2624;SDS011;1322;53.256;10.386;2023-03-13T04:25:52;20.13;;;4.83;;
2624;SDS011;1322;53.256;10.386;2023-03-13T04:28:21;15.53;;;3.90;;
2624;SDS011;1322;53.256;10.386;2023-03-13T04:30:49;25.60;;;5.60;;
2624;SDS011;1322;53.256;10.386;2023-03-13T04:33:15;11.23;;;3.63;;
2624;SDS011;1322;53.256;10.386;2023-03-13T04:35:40;21.80;;;5.60;;
2624;SDS011;1322;53.256;10.386;2023-03-13T04:38:06;15.13;;;5.43;;
2624;SDS011;1322;53.256;10.386;2023-03-13T04:40:32;21.63;;;4.60;;
2624;SDS011;1322;53.256;10.386;2023-03-13T04:42:57;15.87;;;4.77;;
2624;SDS011;1322;53.256;10.386;2023-03-13T04:45:23;25.97;;;5.63;;
2624;SDS011;1322;53.256;10.386;2023-03-13T04:47:48;23.13;;;5.13;;
2624;SDS011;1322;53.256;10.386;2023-03-13T04:50:14;19.47;;;5.30;;
2624;SDS011;1322;53.256;10.386;2023-03-13T04:52:40;24.97;;;5.77;;
2624;SDS011;1322;53.256;10.386;2023-03-13T04:55:05;21.83;;;5.00;;
2624;SDS011;1322;53.256;10.386;2023-03-13T04:57:31;11.97;;;3.87;;
2624;SDS011;1322;53.256;10.386;2023-03-13T04:59:57;15.50;;;4.60;;
2624;SDS011;1322;53.256;10.386;2023-03-13T05:02:22;11.50;;;4.60;;
2624;SDS011;1322;53.256;10.386;2023-03-13T05:04:48;24.20;;;5.47;;
2624;SDS011;1322;53.256;10.386;2023-03-13T05:07:14;14.00;;;4.50;;
2624;SDS011;1322;53.256;10.386;2023-03-13T05:09:39;18.13;;;4.23;;
2624;SDS011;1322;53.256;10.386;2023-03-13T05:12:05;22.33;;;4.83;;
2624;SDS011;1322;53.256;10.386;2023-03-13T05:14:31;17.07;;;4.63;;
2624;SDS011;1322;53.256;10.386;2023-03-13T05:16:56;16.80;;;4.67;;
2624;SDS011;1322;53.256;10.386;2023-03-13T05:19:22;19.60;;;5.23;;
2624;SDS011;1322;53.256;10.386;2023-03-13T05:21:47;16.40;;;4.10;;
2624;SDS011;1322;53.256;10.386;2023-03-13T05:24:13;17.77;;;4.07;;
2624;SDS011;1322;53.256;10.386;2023-03-13T05:26:38;13.70;;;4.90;;
2624;SDS011;1322;53.256;10.386;2023-03-13T05:29:04;21.23;;;4.77;;
2624;SDS011;1322;53.256;10.386;2023-03-13T05:31:32;16.70;;;4.00;;
2624;SDS011;1322;53.256;10.386;2023-03-13T05:33:58;17.07;;;4.23;;
2624;SDS011;1322;53.256;10.386;2023-03-13T05:36:23;16.47;;;4.10;;
2624;SDS011;1322;53.256;10.386;2023-03-13T05:38:49;17.43;;;5.40;;
2624;SDS011;1322;53.256;10.386;2023-03-13T05:41:15;17.43;;;5.70;;
2624;SDS011;1322;53.256;10.386;2023-03-13T05:43:40;12.50;;;4.30;;
2624;SDS011;1322;53.256;10.386;2023-03-13T05:46:06;19.40;;;6.20;;
2624;SDS011;1322;53.256;10.386;2023-03-13T05:48:31;19.47;;;5.00;;
2624;SDS011;1322;53.256;10.386;2023-03-13T05:50:57;23.33;;;4.10;;
2624;SDS011;1322;53.256;10.386;2023-03-13T05:53:22;17.90;;;4.33;;
2624;SDS011;1322;53.256;10.386;2023-03-13T05:55:48;10.70;;;4.33;;
2624;SDS011;1322;53.256;10.386;2023-03-13T05:58:14;9.60;;;4.17;;
2624;SDS011;1322;53.256;10.386;2023-03-13T06:00:39;10.13;;;4.50;;
2624;SDS011;1322;53.256;10.386;2023-03-13T06:03:07;13.57;;;4.67;;
2624;SDS011;1322;53.256;10.386;2023-03-13T06:05:33;21.60;;;4.10;;
2624;SDS011;1322;53.256;10.386;2023-03-13T06:07:59;15.10;;;4.90;;
2624;SDS011;1322;53.256;10.386;2023-03-13T06:10:25;9.70;;;3.20;;
2624;SDS011;1322;53.256;10.386;2023-03-13T06:12:52;15.13;;;3.97;;
2624;SDS011;1322;53.256;10.386;2023-03-13T06:15:19;22.73;;;3.93;;
2624;SDS011;1322;53.256;10.386;2023-03-13T06:17:45;8.77;;;3.73;;
2624;SDS011;1322;53.256;10.386;2023-03-13T06:20:10;8.00;;;3.03;;
2624;SDS011;1322;53.256;10.386;2023-03-13T06:22:36;9.87;;;3.27;;
2624;SDS011;1322;53.256;10.386;2023-03-13T06:25:02;13.43;;;3.30;;
2624;SDS011;1322;53.256;10.386;2023-03-13T06:27:28;6.47;;;2.97;;
2624;SDS011;1322;53.256;10.386;2023-03-13T06:29:54;6.60;;;3.20;;
2624;SDS011;1322;53.256;10.386;2023-03-13T06:32:22;8.00;;;3.20;;
2624;SDS011;1322;53.256;10.386;2023-03-13T06:34:48;9.00;;;3.90;;
2624;SDS011;1322;53.256;10.386;2023-03-13T06:37:13;3.40;;;2.17;;
2624;SDS011;1322;53.256;10.386;2023-03-13T06:39:39;6.47;;;3.10;;
2624;SDS011;1322;53.256;10.386;2023-03-13T06:42:05;13.23;;;3.47;;
2624;SDS011;1322;53.256;10.386;2023-03-13T06:44:31;10.30;;;3.17;;
2624;SDS011;1322;53.256;10.386;2023-03-13T06:46:56;7.30;;;2.73;;
2624;SDS011;1322;53.256;10.386;2023-03-13T06:49:22;13.10;;;3.70;;
2624;SDS011;1322;53.256;10.386;2023-03-13T06:51:47;5.57;;;2.57;;
2624;SDS011;1322;53.256;10.386;2023-03-13T06:54:13;11.83;;;3.20;;
2624;SDS011;1322;53.256;10.386;2023-03-13T06:56:39;4.80;;;2.77;;
2624;SDS011;1322;53.256;10.386;2023-03-13T06:59:04;3.83;;;2.33;;
2624;SDS011;1322;53.256;10.386;2023-03-13T07:01:30;4.00;;;2.10;;
2624;SDS011;1322;53.256;10.386;2023-03-13T07:03:56;8.50;;;2.90;;
2624;SDS011;1322;53.256;10.386;2023-03-13T07:06:21;8.90;;;2.20;;
2624;SDS011;1322;53.256;10.386;2023-03-13T07:08:47;5.23;;;2.10;;
2624;SDS011;1322;53.256;10.386;2023-03-13T07:11:13;4.60;;;2.13;;
2624;SDS011;1322;53.256;10.386;2023-03-13T07:13:40;6.50;;;2.57;;
2624;SDS011;1322;53.256;10.386;2023-03-13T07:16:06;5.60;;;2.20;;
2624;SDS011;1322;53.256;10.386;2023-03-13T07:18:34;8.47;;;2.30;;
2624;SDS011;1322;53.256;10.386;2023-03-13T07:21:00;4.27;;;2.50;;
2624;SDS011;1322;53.256;10.386;2023-03-13T07:23:31;6.67;;;2.30;;
2624;SDS011;1322;53.256;10.386;2023-03-13T07:26:01;11.80;;;2.60;;
2624;SDS011;1322;53.256;10.386;2023-03-13T07:28:29;5.80;;;2.33;;
2624;SDS011;1322;53.256;10.386;2023-03-13T07:31:02;11.00;;;2.60;;
2624;SDS011;1322;53.256;10.386;2023-03-13T07:33:28;6.37;;;2.70;;
2624;SDS011;1322;53.256;10.386;2023-03-13T07:35:54;11.97;;;4.97;;
2624;SDS011;1322;53.256;10.386;2023-03-13T07:38:19;12.70;;;6.30;;
2624;SDS011;1322;53.256;10.386;2023-03-13T07:43:14;7.10;;;2.13;;
2624;SDS011;1322;53.256;10.386;2023-03-13T07:45:48;6.40;;;2.67;;
2624;SDS011;1322;53.256;10.386;2023-03-13T07:48:14;6.93;;;2.27;;
2624;SDS011;1322;53.256;10.386;2023-03-13T07:50:40;12.03;;;2.30;;
2624;SDS011;1322;53.256;10.386;2023-03-13T07:53:05;6.50;;;2.53;;
2624;SDS011;1322;53.256;10.386;2023-03-13T07:55:31;3.73;;;3.00;;
2624;SDS011;1322;53.256;10.386;2023-03-13T07:57:57;3.40;;;1.97;;
2624;SDS011;1322;53.256;10.386;2023-03-13T08:00:22;5.80;;;2.80;;
2624;SDS011;1322;53.256;10.386;2023-03-13T08:02:48;4.53;;;2.50;;
2624;SDS011;1322;53.256;10.386;2023-03-13T08:05:13;12.90;;;4.37;;
2624;SDS011;1322;53.256;10.386;2023-03-13T08:07:39;6.10;;;2.53;;
2624;SDS011;1322;53.256;10.386;2023-03-13T08:10:07;8.43;;;2.80;;
2624;SDS011;1322;53.256;10.386;2023-03-13T08:12:33;9.80;;;2.90;;
2624;SDS011;1322;53.256;10.386;2023-03-13T08:14:59;5.97;;;2.90;;
2624;SDS011;1322;53.256;10.386;2023-03-13T08:17:24;6.43;;;2.77;;
2624;SDS011;1322;53.256;10.386;2023-03-13T08:19:56;7.03;;;2.70;;
2624;SDS011;1322;53.256;10.386;2023-03-13T08:22:21;7.70;;;3.47;;
2624;SDS011;1322;53.256;10.386;2023-03-13T08:24:47;5.33;;;2.90;;
2624;SDS011;1322;53.256;10.386;2023-03-13T08:27:12;4.40;;;3.00;;
2624;SDS011;1322;53.256;10.386;2023-03-13T08:29:38;5.20;;;3.60;;
2624;SDS011;1322;53.256;10.386;2023-03-13T08:32:03;7.97;;;4.47;;
2624;SDS011;1322;53.256;10.386;2023-03-13T08:34:29;6.33;;;3.20;;
2624;SDS011;1322;53.256;10.386;2023-03-13T08:36:55;8.73;;;4.20;;
2624;SDS011;1322;53.256;10.386;2023-03-13T08:39:22;9.70;;;3.83;;
2624;SDS011;1322;53.256;10.386;2023-03-13T08:41:48;8.57;;;4.10;;
2624;SDS011;1322;53.256;10.386;2023-03-13T08:44:14;9.00;;;3.87;;
2624;SDS011;1322;53.256;10.386;2023-03-13T08:46:42;5.80;;;3.73;;
2624;SDS011;1322;53.256;10.386;2023-03-13T08:49:08;7.40;;;3.30;;
2624;SDS011;1322;53.256;10.386;2023-03-13T08:51:35;7.00;;;3.80;;
2624;SDS011;1322;53.256;10.386;2023-03-13T08:54:03;10.30;;;5.20;;
2624;SDS011;1322;53.256;10.386;2023-03-13T08:56:29;12.40;;;6.97;;
2624;SDS011;1322;53.256;10.386;2023-03-13T08:58:57;6.40;;;4.07;;
2624;SDS011;1322;53.256;10.386;2023-03-13T09:01:28;5.80;;;4.17;;
2624;SDS011;1322;53.256;10.386;2023-03-13T09:03:57;11.20;;;4.67;;
2624;SDS011;1322;53.256;10.386;2023-03-13T09:06:24;5.60;;;4.23;;
2624;SDS011;1322;53.256;10.386;2023-03-13T09:08:50;5.83;;;4.43;;
2624;SDS011;1322;53.256;10.386;2023-03-13T09:11:16;5.90;;;4.47;;
2624;SDS011;1322;53.256;10.386;2023-03-13T09:13:48;10.57;;;4.63;;
2624;SDS011;1322;53.256;10.386;2023-03-13T09:16:16;6.70;;;4.77;;
2624;SDS011;1322;53.256;10.386;2023-03-13T09:18:43;12.20;;;7.40;;
2624;SDS011;1322;53.256;10.386;2023-03-13T09:21:11;7.00;;;3.80;;
2624;SDS011;1322;53.256;10.386;2023-03-13T09:23:38;6.43;;;4.03;;
2624;SDS011;1322;53.256;10.386;2023-03-13T09:26:04;7.10;;;5.30;;
2624;SDS011;1322;53.256;10.386;2023-03-13T09:28:30;6.40;;;4.37;;
2624;SDS011;1322;53.256;10.386;2023-03-13T09:31:05;6.60;;;5.00;;
2624;SDS011;1322;53.256;10.386;2023-03-13T09:33:38;5.80;;;4.60;;
2624;SDS011;1322;53.256;10.386;2023-03-13T09:36:05;8.63;;;4.80;;
2624;SDS011;1322;53.256;10.386;2023-03-13T09:38:31;6.47;;;5.60;;
2624;SDS011;1322;53.256;10.386;2023-03-13T09:41:01;7.43;;;5.27;;
2624;SDS011;1322;53.256;10.386;2023-03-13T09:43:38;9.20;;;5.47;;
2624;SDS011;1322;53.256;10.386;2023-03-13T09:46:10;10.70;;;5.60;;
2624;SDS011;1322;53.256;10.386;2023-03-13T09:48:47;8.43;;;5.80;;
2624;SDS011;1322;53.256;10.386;2023-03-13T09:51:36;11.83;;;6.10;;
2624;SDS011;1322;53.256;10.386;2023-03-13T09:54:10;9.97;;;6.10;;
2624;SDS011;1322;53.256;10.386;2023-03-13T09:56:48;7.13;;;5.77;;
2624;SDS011;1322;53.256;10.386;2023-03-13T09:59:36;10.73;;;6.53;;
2624;SDS011;1322;53.256;10.386;2023-03-13T10:02:34;8.63;;;6.10;;
2624;SDS011;1322;53.256;10.386;2023-03-13T10:05:04;7.30;;;6.40;;
2624;SDS011;1322;53.256;10.386;2023-03-13T10:07:37;8.53;;;6.17;;
2624;SDS011;1322;53.256;10.386;2023-03-13T10:10:05;9.43;;;7.30;;
2624;SDS011;1322;53.256;10.386;2023-03-13T10:12:38;10.30;;;6.80;;
2624;SDS011;1322;53.256;10.386;2023-03-13T10:18:11;11.33;;;7.27;;
2624;SDS011;1322;53.256;10.386;2023-03-13T10:20:40;8.50;;;7.27;;
2624;SDS011;1322;53.256;10.386;2023-03-13T10:23:26;10.50;;;6.97;;
2624;SDS011;1322;53.256;10.386;2023-03-13T10:26:01;11.87;;;6.80;;
2624;SDS011;1322;53.256;10.386;2023-03-13T10:28:27;8.23;;;7.10;;
2624;SDS011;1322;53.256;10.386;2023-03-13T10:30:53;10.43;;;5.77;;
2624;SDS011;1322;53.256;10.386;2023-03-13T10:33:27;6.10;;;5.50;;
2624;SDS011;1322;53.256;10.386;2023-03-13T10:38:26;11.10;;;7.23;;
2624;SDS011;1322;53.256;10.386;2023-03-13T10:40:55;6.70;;;5.70;;
2624;SDS011;1322;53.256;10.386;2023-03-13T10:43:23;7.23;;;6.03;;
2624;SDS011;1322;53.256;10.386;2023-03-13T10:45:50;9.73;;;7.33;;
2624;SDS011;1322;53.256;10.386;2023-03-13T10:48:20;8.90;;;6.17;;
2624;SDS011;1322;53.256;10.386;2023-03-13T10:50:52;6.97;;;6.37;;
2624;SDS011;1322;53.256;10.386;2023-03-13T10:55:53;5.57;;;5.07;;
2624;SDS011;1322;53.256;10.386;2023-03-13T10:58:26;7.63;;;6.50;;
2624;SDS011;1322;53.256;10.386;2023-03-13T11:03:53;6.33;;;5.73;;
2624;SDS011;1322;53.256;10.386;2023-03-13T11:06:27;7.43;;;6.47;;
2624;SDS011;1322;53.256;10.386;2023-03-13T11:09:14;11.27;;;5.60;;
2624;SDS011;1322;53.256;10.386;2023-03-13T11:14:33;6.90;;;5.77;;
2624;SDS011;1322;53.256;10.386;2023-03-13T11:22:39;4.30;;;3.90;;
2624;SDS011;1322;53.256;10.386;2023-03-13T11:25:19;4.83;;;4.33;;
2624;SDS011;1322;53.256;10.386;2023-03-13T11:36:20;5.90;;;5.13;;
2624;SDS011;1322;53.256;10.386;2023-03-13T11:44:30;4.93;;;3.80;;
2624;SDS011;1322;53.256;10.386;2023-03-13T11:53:09;4.57;;;3.40;;
2624;SDS011;1322;53.256;10.386;2023-03-13T11:55:58;3.43;;;3.07;;
2624;SDS011;1322;53.256;10.386;2023-03-13T11:58:47;3.80;;;2.90;;
2624;SDS011;1322;53.256;10.386;2023-03-13T12:01:18;4.07;;;3.40;;
2624;SDS011;1322;53.256;10.386;2023-03-13T12:03:50;5.30;;;3.73;;
2624;SDS011;1322;53.256;10.386;2023-03-13T12:06:30;4.70;;;3.67;;
2624;SDS011;1322;53.256;10.386;2023-03-13T12:11:52;4.20;;;3.30;;
2624;SDS011;1322;53.256;10.386;2023-03-13T12:14:33;3.23;;;2.80;;
2624;SDS011;1322;53.256;10.386;2023-03-13T12:17:05;3.50;;;2.80;;
2624;SDS011;1322;53.256;10.386;2023-03-13T12:19:44;5.33;;;2.93;;
2624;SDS011;1322;53.256;10.386;2023-03-13T12:22:22;4.90;;;3.20;;
2624;SDS011;1322;53.256;10.386;2023-03-13T12:25:57;6.00;;;3.00;;
2624;SDS011;1322;53.256;10.386;2023-03-13T12:28:17;6.00;;;3.17;;
2624;SDS011;1322;53.256;10.386;2023-03-13T12:30:53;4.83;;;2.57;;
2624;SDS011;1322;53.256;10.386;2023-03-13T12:33:24;2.40;;;2.20;;
2624;SDS011;1322;53.256;10.386;2023-03-13T12:36:03;2.50;;;2.10;;
2624;SDS011;1322;53.256;10.386;2023-03-13T12:41:39;2.63;;;2.43;;
2624;SDS011;1322;53.256;10.386;2023-03-13T12:44:14;3.17;;;2.50;;
2624;SDS011;1322;53.256;10.386;2023-03-13T12:55:21;5.33;;;2.33;;
2624;SDS011;1322;53.256;10.386;2023-03-13T13:00:42;2.60;;;2.40;;
2624;SDS011;1322;53.256;10.386;2023-03-13T13:06:22;3.60;;;2.10;;
2624;SDS011;1322;53.256;10.386;2023-03-13T13:09:16;3.47;;;2.07;;
2624;SDS011;1322;53.256;10.386;2023-03-13T13:16:42;5.10;;;2.70;;
2624;SDS011;1322;53.256;10.386;2023-03-13T13:24:51;3.97;;;1.40;;
2624;SDS011;1322;53.256;10.386;2023-03-13T13:27:43;4.10;;;1.53;;
2624;SDS011;1322;53.256;10.386;2023-03-13T13:32:54;4.30;;;2.23;;
2624;SDS011;1322;53.256;10.386;2023-03-13T13:35:40;2.70;;;1.50;;
2624;SDS011;1322;53.256;10.386;2023-03-13T13:41:03;3.43;;;1.67;;
2624;SDS011;1322;53.256;10.386;2023-03-13T13:43:47;1.73;;;1.43;;
2624;SDS011;1322;53.256;10.386;2023-03-13T13:46:21;3.10;;;1.63;;
2624;SDS011;1322;53.256;10.386;2023-03-13T13:51:34;3.87;;;1.80;;
2624;SDS011;1322;53.256;10.386;2023-03-13T13:57:20;4.67;;;1.80;;
2624;SDS011;1322;53.256;10.386;2023-03-13T13:59:49;3.30;;;1.20;;
2624;SDS011;1322;53.256;10.386;2023-03-13T14:02:35;4.20;;;1.90;;
2624;SDS011;1322;53.256;10.386;2023-03-13T14:05:20;5.00;;;1.83;;
2624;SDS011;1322;53.256;10.386;2023-03-13T14:07:53;5.67;;;2.43;;
2624;SDS011;1322;53.256;10.386;2023-03-13T14:13:08;3.30;;;2.37;;
2624;SDS011;1322;53.256;10.386;2023-03-13T14:15:39;3.47;;;1.70;;
2624;SDS011;1322;53.256;10.386;2023-03-13T14:18:11;3.90;;;1.60;;
2624;SDS011;1322;53.256;10.386;2023-03-13T14:20:58;11.00;;;2.00;;
2624;SDS011;1322;53.256;10.386;2023-03-13T14:23:47;4.63;;;1.57;;
2624;SDS011;1322;53.256;10.386;2023-03-13T14:26:16;2.10;;;1.60;;
2624;SDS011;1322;53.256;10.386;2023-03-13T14:28:53;5.67;;;2.10;;
2624;SDS011;1322;53.256;10.386;2023-03-13T14:31:46;3.50;;;1.70;;
2624;SDS011;1322;53.256;10.386;2023-03-13T14:34:13;7.13;;;2.07;;
2624;SDS011;1322;53.256;10.386;2023-03-13T14:36:49;7.07;;;1.80;;
2624;SDS011;1322;53.256;10.386;2023-03-13T14:39:21;4.90;;;1.63;;
2624;SDS011;1322;53.256;10.386;2023-03-13T14:42:01;4.03;;;1.70;;
2624;SDS011;1322;53.256;10.386;2023-03-13T14:44:29;3.20;;;1.80;;
2624;SDS011;1322;53.256;10.386;2023-03-13T14:46:58;2.40;;;1.47;;
2624;SDS011;1322;53.256;10.386;2023-03-13T14:49:28;2.80;;;2.07;;
2624;SDS011;1322;53.256;10.386;2023-03-13T14:54:31;3.40;;;2.17;;
2624;SDS011;1322;53.256;10.386;2023-03-13T14:59:38;3.87;;;1.40;;
2624;SDS011;1322;53.256;10.386;2023-03-13T15:02:14;4.07;;;1.83;;
2624;SDS011;1322;53.256;10.386;2023-03-13T15:04:46;2.40;;;1.77;;
2624;SDS011;1322;53.256;10.386;2023-03-13T15:07:13;3.57;;;2.00;;
2624;SDS011;1322;53.256;10.386;2023-03-13T15:09:43;1.67;;;1.50;;
2624;SDS011;1322;53.256;10.386;2023-03-13T15:12:14;4.13;;;2.03;;
2624;SDS011;1322;53.256;10.386;2023-03-13T15:14:42;3.30;;;1.70;;
2624;SDS011;1322;53.256;10.386;2023-03-13T15:19:52;3.70;;;1.93;;
2624;SDS011;1322;53.256;10.386;2023-03-13T15:22:41;4.17;;;2.03;;
2624;SDS011;1322;53.256;10.386;2023-03-13T15:25:16;5.90;;;2.47;;
2624;SDS011;1322;53.256;10.386;2023-03-13T15:27:44;3.53;;;2.50;;
2624;SDS011;1322;53.256;10.386;2023-03-13T15:30:13;5.70;;;1.93;;
2624;SDS011;1322;53.256;10.386;2023-03-13T15:32:40;5.00;;;2.93;;
2624;SDS011;1322;53.256;10.386;2023-03-13T15:37:51;5.03;;;2.47;;
2624;SDS011;1322;53.256;10.386;2023-03-13T15:40:17;2.63;;;1.90;;
2624;SDS011;1322;53.256;10.386;2023-03-13T15:42:43;3.27;;;2.23;;
2624;SDS011;1322;53.256;10.386;2023-03-13T15:45:09;3.40;;;2.17;;
2624;SDS011;1322;53.256;10.386;2023-03-13T15:47:35;3.27;;;2.00;;
2624;SDS011;1322;53.256;10.386;2023-03-13T15:50:00;2.60;;;2.13;;
2624;SDS011;1322;53.256;10.386;2023-03-13T15:52:27;2.80;;;1.90;;
2624;SDS011;1322;53.256;10.386;2023-03-13T15:54:53;4.00;;;2.53;;
2624;SDS011;1322;53.256;10.386;2023-03-13T15:57:22;6.80;;;2.03;;
2624;SDS011;1322;53.256;10.386;2023-03-13T15:59:50;2.17;;;1.70;;
2624;SDS011;1322;53.256;10.386;2023-03-13T16:02:17;2.37;;;2.00;;
2624;SDS011;1322;53.256;10.386;2023-03-13T16:04:45;2.80;;;1.87;;
2624;SDS011;1322;53.256;10.386;2023-03-13T16:07:11;4.07;;;1.87;;
2624;SDS011;1322;53.256;10.386;2023-03-13T16:09:39;2.80;;;1.90;;
2624;SDS011;1322;53.256;10.386;2023-03-13T16:12:06;1.90;;;1.70;;
2624;SDS011;1322;53.256;10.386;2023-03-13T16:14:32;4.80;;;2.70;;
2624;SDS011;1322;53.256;10.386;2023-03-13T16:16:58;2.10;;;1.90;;
2624;SDS011;1322;53.256;10.386;2023-03-13T16:19:28;2.20;;;1.90;;
2624;SDS011;1322;53.256;10.386;2023-03-13T16:21:53;2.30;;;1.70;;
2624;SDS011;1322;53.256;10.386;2023-03-13T16:24:19;2.90;;;2.10;;
2624;SDS011;1322;53.256;10.386;2023-03-13T16:26:45;4.47;;;1.90;;
2624;SDS011;1322;53.256;10.386;2023-03-13T16:29:11;2.63;;;1.57;;
2624;SDS011;1322;53.256;10.386;2023-03-13T16:31:38;3.67;;;2.20;;
2624;SDS011;1322;53.256;10.386;2023-03-13T16:34:04;1.53;;;1.40;;
2624;SDS011;1322;53.256;10.386;2023-03-13T16:36:31;2.23;;;1.80;;
2624;SDS011;1322;53.256;10.386;2023-03-13T16:38:57;2.23;;;2.00;;
2624;SDS011;1322;53.256;10.386;2023-03-13T16:41:24;3.60;;;2.17;;
2624;SDS011;1322;53.256;10.386;2023-03-13T16:43:51;6.13;;;2.90;;
2624;SDS011;1322;53.256;10.386;2023-03-13T16:46:19;5.27;;;1.50;;
2624;SDS011;1322;53.256;10.386;2023-03-13T16:48:47;2.67;;;1.50;;
2624;SDS011;1322;53.256;10.386;2023-03-13T16:51:14;3.70;;;1.90;;
2624;SDS011;1322;53.256;10.386;2023-03-13T16:53:41;2.77;;;1.60;;